sensor_id;sensor_type;location;lat;lon;timestamp;P1;P4;P2;P0;N10;N4;N25;N1;N05;TS
85470;SPS30;75873;54.332;18.626;2024-02-23T00:00:32;20.6;;20.5;19.3;;;;;;
85470;SPS30;75873;54.332;18.626;2024-02-23T00:05:32;19.9;;19.8;18.6;;;;;;
85470;SPS30;75873;54.332;18.626;2024-02-23T00:10:32;19.7;;19.6;18.5;;;;;;
85470;SPS30;75873;54.332;18.626;2024-02-23T00:15:32;20.4;;20.4;19.2;;;;;;
85470;SPS30;75873;54.332;18.626;2024-02-23T00:20:32;19.1;;19.1;18.1;;;;;;
85470;SPS30;75873;54.332;18.626;2024-02-23T00:25:32;19.0;;19.0;17.9;;;;;;
85470;SPS30;75873;54.332;18.626;2024-02-23T00:30:32;18.8;;18.7;17.7;;;;;;
85470;SPS30;75873;54.332;18.626;2024-02-23T00:35:32;19.1;;19.1;18.0;;;;;;
85470;SPS30;75873;54.332;18.626;2024-02-23T00:40:32;20.3;;20.3;19.2;;;;;;
85470;SPS30;75873;54.332;18.626;2024-02-23T00:45:32;18.8;;18.8;17.8;;;;;;
85470;SPS30;75873;54.332;18.626;2024-02-23T00:50:32;19.0;;19.0;18.0;;;;;;
85470;SPS30;75873;54.332;18.626;2024-02-23T00:55:32;18.3;;18.3;17.3;;;;;;
85470;SPS30;75873;54.332;18.626;2024-02-23T01:00:32;18.2;;18.2;17.2;;;;;;
85470;SPS30;75873;54.332;18.626;2024-02-23T01:05:32;18.3;;18.3;17.3;;;;;;
85470;SPS30;75873;54.332;18.626;2024-02-23T01:10:32;17.9;;17.9;16.9;;;;;;
85470;SPS30;75873;54.332;18.626;2024-02-23T01:15:32;18.6;;18.6;17.6;;;;;;
85470;SPS30;75873;54.332;18.626;2024-02-23T01:20:32;18.2;;18.1;17.1;;;;;;
85470;SPS30;75873;54.332;18.626;2024-02-23T01:25:32;18.2;;18.2;17.2;;;;;;
85470;SPS30;75873;54.332;18.626;2024-02-23T01:30:32;17.8;;17.7;16.7;;;;;;
85470;SPS30;75873;54.332;18.626;2024-02-23T01:35:32;17.5;;17.5;16.4;;;;;;
85470;SPS30;75873;54.332;18.626;2024-02-23T01:40:32;17.7;;17.6;16.5;;;;;;
85470;SPS30;75873;54.332;18.626;2024-02-23T01:45:32;17.3;;17.3;16.4;;;;;;
85470;SPS30;75873;54.332;18.626;2024-02-23T01:50:32;16.8;;16.7;15.7;;;;;;
85470;SPS30;75873;54.332;18.626;2024-02-23T01:55:32;17.6;;17.6;16.6;;;;;;
85470;SPS30;75873;54.332;18.626;2024-02-23T02:00:32;17.2;;17.1;16.2;;;;;;
85470;SPS30;75873;54.332;18.626;2024-02-23T02:05:32;17.3;;17.3;16.4;;;;;;
85470;SPS30;75873;54.332;18.626;2024-02-23T02:10:32;17.1;;17.1;16.1;;;;;;
85470;SPS30;75873;54.332;18.626;2024-02-23T02:15:32;16.9;;16.9;16.0;;;;;;
85470;SPS30;75873;54.332;18.626;2024-02-23T02:20:33;16.2;;16.2;15.3;;;;;;
85470;SPS30;75873;54.332;18.626;2024-02-23T02:25:32;16.4;;16.4;15.5;;;;;;
85470;SPS30;75873;54.332;18.626;2024-02-23T02:30:32;16.8;;16.8;15.9;;;;;;
85470;SPS30;75873;54.332;18.626;2024-02-23T02:35:32;17.5;;17.5;16.5;;;;;;
85470;SPS30;75873;54.332;18.626;2024-02-23T02:40:32;17.0;;16.9;16.0;;;;;;
85470;SPS30;75873;54.332;18.626;2024-02-23T02:45:32;17.9;;17.8;16.7;;;;;;
85470;SPS30;75873;54.332;18.626;2024-02-23T02:50:32;16.6;;16.6;15.7;;;;;;
85470;SPS30;75873;54.332;18.626;2024-02-23T02:55:32;17.4;;17.3;16.3;;;;;;
85470;SPS30;75873;54.332;18.626;2024-02-23T03:00:32;16.6;;16.6;15.7;;;;;;
85470;SPS30;75873;54.332;18.626;2024-02-23T03:05:32;16.8;;16.8;15.9;;;;;;
85470;SPS30;75873;54.332;18.626;2024-02-23T03:10:32;16.7;;16.7;15.8;;;;;;
85470;SPS30;75873;54.332;18.626;2024-02-23T03:15:32;16.6;;16.6;15.7;;;;;;
85470;SPS30;75873;54.332;18.626;2024-02-23T03:20:32;16.5;;16.4;15.4;;;;;;
85470;SPS30;75873;54.332;18.626;2024-02-23T03:25:32;16.6;;16.6;15.7;;;;;;
85470;SPS30;75873;54.332;18.626;2024-02-23T03:30:32;16.3;;16.3;15.5;;;;;;
85470;SPS30;75873;54.332;18.626;2024-02-23T03:35:32;16.9;;16.7;15.7;;;;;;
85470;SPS30;75873;54.332;18.626;2024-02-23T03:40:32;16.1;;16.1;15.2;;;;;;
85470;SPS30;75873;54.332;18.626;2024-02-23T03:45:32;16.7;;16.7;15.8;;;;;;
85470;SPS30;75873;54.332;18.626;2024-02-23T03:50:32;16.1;;16.1;15.3;;;;;;
85470;SPS30;75873;54.332;18.626;2024-02-23T03:55:32;16.9;;16.9;16.0;;;;;;
85470;SPS30;75873;54.332;18.626;2024-02-23T04:00:32;16.6;;16.6;15.7;;;;;;
85470;SPS30;75873;54.332;18.626;2024-02-23T04:05:32;16.7;;16.7;15.8;;;;;;
85470;SPS30;75873;54.332;18.626;2024-02-23T04:10:32;16.9;;16.9;16.0;;;;;;
85470;SPS30;75873;54.332;18.626;2024-02-23T04:15:32;17.1;;17.1;16.1;;;;;;
85470;SPS30;75873;54.332;18.626;2024-02-23T04:20:32;16.1;;16.1;15.2;;;;;;
85470;SPS30;75873;54.332;18.626;2024-02-23T04:25:32;16.7;;16.7;15.8;;;;;;
85470;SPS30;75873;54.332;18.626;2024-02-23T04:30:32;16.3;;16.3;15.4;;;;;;
85470;SPS30;75873;54.332;18.626;2024-02-23T04:35:32;15.9;;15.9;15.1;;;;;;
85470;SPS30;75873;54.332;18.626;2024-02-23T04:40:32;16.5;;16.5;15.6;;;;;;
85470;SPS30;75873;54.332;18.626;2024-02-23T04:45:32;17.0;;16.9;15.8;;;;;;
85470;SPS30;75873;54.332;18.626;2024-02-23T04:50:32;14.8;;14.8;14.0;;;;;;
85470;SPS30;75873;54.332;18.626;2024-02-23T04:55:32;15.5;;15.5;14.7;;;;;;
85470;SPS30;75873;54.332;18.626;2024-02-23T05:00:32;15.8;;15.8;14.9;;;;;;
85470;SPS30;75873;54.332;18.626;2024-02-23T05:05:32;16.0;;16.0;15.2;;;;;;
85470;SPS30;75873;54.332;18.626;2024-02-23T05:10:32;15.6;;15.6;14.8;;;;;;
85470;SPS30;75873;54.332;18.626;2024-02-23T05:15:32;16.9;;16.9;15.9;;;;;;
85470;SPS30;75873;54.332;18.626;2024-02-23T05:20:32;16.1;;16.1;15.2;;;;;;
85470;SPS30;75873;54.332;18.626;2024-02-23T05:25:32;15.5;;15.5;14.7;;;;;;
85470;SPS30;75873;54.332;18.626;2024-02-23T05:30:32;14.4;;14.4;13.7;;;;;;
85470;SPS30;75873;54.332;18.626;2024-02-23T05:35:32;14.7;;14.7;13.9;;;;;;
85470;SPS30;75873;54.332;18.626;2024-02-23T05:40:32;13.0;;13.0;12.3;;;;;;
85470;SPS30;75873;54.332;18.626;2024-02-23T05:45:32;13.3;;13.3;12.6;;;;;;
85470;SPS30;75873;54.332;18.626;2024-02-23T05:50:32;13.5;;13.5;12.7;;;;;;
85470;SPS30;75873;54.332;18.626;2024-02-23T05:55:32;13.3;;13.3;12.6;;;;;;
85470;SPS30;75873;54.332;18.626;2024-02-23T06:00:32;13.0;;13.0;12.3;;;;;;
85470;SPS30;75873;54.332;18.626;2024-02-23T06:05:32;11.9;;11.9;11.2;;;;;;
85470;SPS30;75873;54.332;18.626;2024-02-23T06:10:32;11.6;;11.6;10.9;;;;;;
85470;SPS30;75873;54.332;18.626;2024-02-23T06:15:32;11.7;;11.7;11.0;;;;;;
85470;SPS30;75873;54.332;18.626;2024-02-23T06:20:32;10.9;;10.9;10.3;;;;;;
85470;SPS30;75873;54.332;18.626;2024-02-23T06:25:32;10.4;;10.4;9.8;;;;;;
85470;SPS30;75873;54.332;18.626;2024-02-23T06:30:32;10.1;;10.1;9.5;;;;;;
85470;SPS30;75873;54.332;18.626;2024-02-23T06:35:32;10.5;;10.5;9.9;;;;;;
85470;SPS30;75873;54.332;18.626;2024-02-23T06:40:32;9.6;;9.6;9.1;;;;;;
85470;SPS30;75873;54.332;18.626;2024-02-23T06:45:32;10.0;;10.0;9.4;;;;;;
85470;SPS30;75873;54.332;18.626;2024-02-23T06:50:32;8.6;;8.6;8.2;;;;;;
85470;SPS30;75873;54.332;18.626;2024-02-23T06:55:32;9.9;;9.9;9.4;;;;;;
85470;SPS30;75873;54.332;18.626;2024-02-23T07:00:32;9.6;;9.6;9.1;;;;;;
85470;SPS30;75873;54.332;18.626;2024-02-23T07:05:32;8.7;;8.7;8.2;;;;;;
85470;SPS30;75873;54.332;18.626;2024-02-23T07:10:32;9.0;;9.0;8.5;;;;;;
85470;SPS30;75873;54.332;18.626;2024-02-23T07:15:32;12.9;;12.9;12.2;;;;;;
85470;SPS30;75873;54.332;18.626;2024-02-23T07:20:32;11.6;;11.5;10.7;;;;;;
85470;SPS30;75873;54.332;18.626;2024-02-23T07:25:32;19.6;;19.5;18.3;;;;;;
85470;SPS30;75873;54.332;18.626;2024-02-23T07:30:32;10.8;;10.8;10.2;;;;;;
85470;SPS30;75873;54.332;18.626;2024-02-23T07:35:32;7.8;;7.8;7.4;;;;;;
85470;SPS30;75873;54.332;18.626;2024-02-23T07:40:32;6.0;;6.0;5.7;;;;;;
85470;SPS30;75873;54.332;18.626;2024-02-23T07:45:32;9.1;;9.1;8.6;;;;;;
85470;SPS30;75873;54.332;18.626;2024-02-23T07:50:32;10.8;;10.8;10.3;;;;;;
85470;SPS30;75873;54.332;18.626;2024-02-23T07:55:32;5.1;;5.1;4.8;;;;;;
85470;SPS30;75873;54.332;18.626;2024-02-23T08:00:32;4.8;;4.8;4.6;;;;;;
85470;SPS30;75873;54.332;18.626;2024-02-23T08:05:32;5.3;;5.3;5.1;;;;;;
85470;SPS30;75873;54.332;18.626;2024-02-23T08:10:32;4.2;;4.2;4.0;;;;;;
85470;SPS30;75873;54.332;18.626;2024-02-23T08:15:32;4.3;;4.3;4.0;;;;;;
85470;SPS30;75873;54.332;18.626;2024-02-23T08:20:32;3.6;;3.6;3.4;;;;;;
85470;SPS30;75873;54.332;18.626;2024-02-23T08:25:32;3.6;;3.6;3.4;;;;;;
85470;SPS30;75873;54.332;18.626;2024-02-23T08:30:32;3.1;;3.1;2.9;;;;;;
85470;SPS30;75873;54.332;18.626;2024-02-23T08:35:32;3.1;;3.1;2.9;;;;;;
85470;SPS30;75873;54.332;18.626;2024-02-23T08:40:32;3.1;;3.1;2.9;;;;;;
85470;SPS30;75873;54.332;18.626;2024-02-23T08:45:32;2.8;;2.8;2.6;;;;;;
85470;SPS30;75873;54.332;18.626;2024-02-23T08:50:32;2.8;;2.8;2.7;;;;;;
85470;SPS30;75873;54.332;18.626;2024-02-23T08:55:32;2.9;;2.9;2.8;;;;;;
85470;SPS30;75873;54.332;18.626;2024-02-23T09:00:32;2.5;;2.5;2.4;;;;;;
85470;SPS30;75873;54.332;18.626;2024-02-23T09:05:32;2.5;;2.5;2.4;;;;;;
85470;SPS30;75873;54.332;18.626;2024-02-23T09:10:32;1.6;;1.6;1.5;;;;;;
85470;SPS30;75873;54.332;18.626;2024-02-23T09:15:32;1.5;;1.5;1.4;;;;;;
85470;SPS30;75873;54.332;18.626;2024-02-23T09:20:32;1.7;;1.7;1.6;;;;;;
85470;SPS30;75873;54.332;18.626;2024-02-23T09:25:32;1.5;;1.5;1.4;;;;;;
85470;SPS30;75873;54.332;18.626;2024-02-23T09:30:32;2.3;;2.2;2.1;;;;;;
85470;SPS30;75873;54.332;18.626;2024-02-23T09:35:32;2.6;;2.5;2.2;;;;;;
85470;SPS30;75873;54.332;18.626;2024-02-23T09:40:32;1.6;;1.6;1.4;;;;;;
85470;SPS30;75873;54.332;18.626;2024-02-23T09:45:32;1.2;;1.2;1.1;;;;;;
85470;SPS30;75873;54.332;18.626;2024-02-23T09:50:32;1.3;;1.3;1.1;;;;;;
85470;SPS30;75873;54.332;18.626;2024-02-23T09:55:32;1.1;;1.1;1.0;;;;;;
85470;SPS30;75873;54.332;18.626;2024-02-23T10:00:32;1.0;;1.0;0.9;;;;;;
85470;SPS30;75873;54.332;18.626;2024-02-23T10:05:32;1.3;;1.2;1.1;;;;;;
85470;SPS30;75873;54.332;18.626;2024-02-23T10:10:33;1.2;;1.1;1.0;;;;;;
85470;SPS30;75873;54.332;18.626;2024-02-23T10:15:32;1.1;;1.1;1.0;;;;;;
85470;SPS30;75873;54.332;18.626;2024-02-23T10:20:32;1.6;;1.5;1.3;;;;;;
85470;SPS30;75873;54.332;18.626;2024-02-23T10:25:32;1.4;;1.3;1.1;;;;;;
85470;SPS30;75873;54.332;18.626;2024-02-23T10:30:32;1.4;;1.3;1.1;;;;;;
85470;SPS30;75873;54.332;18.626;2024-02-23T10:35:32;1.5;;1.3;1.1;;;;;;
85470;SPS30;75873;54.332;18.626;2024-02-23T10:40:32;1.3;;1.2;1.0;;;;;;
85470;SPS30;75873;54.332;18.626;2024-02-23T10:45:32;1.3;;1.2;1.0;;;;;;
85470;SPS30;75873;54.332;18.626;2024-02-23T10:50:32;1.1;;1.0;0.9;;;;;;
85470;SPS30;75873;54.332;18.626;2024-02-23T10:55:32;1.3;;1.2;1.1;;;;;;
85470;SPS30;75873;54.332;18.626;2024-02-23T11:00:32;1.0;;1.0;0.9;;;;;;
85470;SPS30;75873;54.332;18.626;2024-02-23T11:05:32;1.0;;1.0;0.9;;;;;;
85470;SPS30;75873;54.332;18.626;2024-02-23T11:10:32;1.1;;1.1;1.0;;;;;;
85470;SPS30;75873;54.332;18.626;2024-02-23T11:15:32;0.9;;0.9;0.8;;;;;;
85470;SPS30;75873;54.332;18.626;2024-02-23T11:20:36;1.0;;1.0;0.9;;;;;;
85470;SPS30;75873;54.332;18.626;2024-02-23T11:25:32;1.0;;1.0;0.9;;;;;;
85470;SPS30;75873;54.332;18.626;2024-02-23T11:30:32;1.2;;1.2;1.2;;;;;;
85470;SPS30;75873;54.332;18.626;2024-02-23T11:35:32;1.1;;1.1;1.0;;;;;;
85470;SPS30;75873;54.332;18.626;2024-02-23T11:40:32;1.1;;1.1;1.0;;;;;;
85470;SPS30;75873;54.332;18.626;2024-02-23T11:45:32;1.3;;1.3;1.3;;;;;;
85470;SPS30;75873;54.332;18.626;2024-02-23T11:50:32;1.3;;1.3;1.2;;;;;;
85470;SPS30;75873;54.332;18.626;2024-02-23T11:55:32;1.3;;1.3;1.3;;;;;;
85470;SPS30;75873;54.332;18.626;2024-02-23T12:00:32;1.2;;1.2;1.1;;;;;;
85470;SPS30;75873;54.332;18.626;2024-02-23T12:05:32;1.2;;1.2;1.1;;;;;;
85470;SPS30;75873;54.332;18.626;2024-02-23T12:10:32;1.8;;1.8;1.7;;;;;;
85470;SPS30;75873;54.332;18.626;2024-02-23T12:15:32;1.3;;1.3;1.2;;;;;;
85470;SPS30;75873;54.332;18.626;2024-02-23T12:20:35;2.1;;2.0;1.9;;;;;;
85470;SPS30;75873;54.332;18.626;2024-02-23T12:25:32;1.6;;1.6;1.4;;;;;;
85470;SPS30;75873;54.332;18.626;2024-02-23T12:30:32;1.6;;1.5;1.4;;;;;;
85470;SPS30;75873;54.332;18.626;2024-02-23T12:35:32;1.5;;1.5;1.4;;;;;;
85470;SPS30;75873;54.332;18.626;2024-02-23T12:40:32;2.2;;2.2;2.1;;;;;;
85470;SPS30;75873;54.332;18.626;2024-02-23T12:45:32;1.5;;1.5;1.4;;;;;;
85470;SPS30;75873;54.332;18.626;2024-02-23T12:50:32;1.5;;1.5;1.4;;;;;;
85470;SPS30;75873;54.332;18.626;2024-02-23T12:55:32;1.7;;1.7;1.6;;;;;;
85470;SPS30;75873;54.332;18.626;2024-02-23T13:00:32;2.1;;2.1;1.9;;;;;;
85470;SPS30;75873;54.332;18.626;2024-02-23T13:05:32;2.0;;2.0;1.9;;;;;;
85470;SPS30;75873;54.332;18.626;2024-02-23T13:10:32;1.8;;1.8;1.7;;;;;;
85470;SPS30;75873;54.332;18.626;2024-02-23T13:15:32;1.9;;1.9;1.8;;;;;;
85470;SPS30;75873;54.332;18.626;2024-02-23T13:20:32;1.8;;1.8;1.7;;;;;;
85470;SPS30;75873;54.332;18.626;2024-02-23T13:25:33;2.6;;2.6;2.5;;;;;;
85470;SPS30;75873;54.332;18.626;2024-02-23T13:30:32;1.7;;1.7;1.6;;;;;;
85470;SPS30;75873;54.332;18.626;2024-02-23T13:35:32;2.1;;2.1;2.0;;;;;;
85470;SPS30;75873;54.332;18.626;2024-02-23T13:40:32;1.8;;1.8;1.7;;;;;;
85470;SPS30;75873;54.332;18.626;2024-02-23T13:45:32;3.0;;3.0;2.9;;;;;;
85470;SPS30;75873;54.332;18.626;2024-02-23T13:50:32;1.6;;1.6;1.5;;;;;;
85470;SPS30;75873;54.332;18.626;2024-02-23T13:55:32;3.1;;3.1;2.9;;;;;;
85470;SPS30;75873;54.332;18.626;2024-02-23T14:00:32;2.2;;2.2;2.1;;;;;;
85470;SPS30;75873;54.332;18.626;2024-02-23T14:05:32;1.8;;1.8;1.7;;;;;;
85470;SPS30;75873;54.332;18.626;2024-02-23T14:10:32;2.2;;2.2;2.1;;;;;;
85470;SPS30;75873;54.332;18.626;2024-02-23T14:15:32;1.8;;1.8;1.7;;;;;;
85470;SPS30;75873;54.332;18.626;2024-02-23T14:20:32;1.8;;1.8;1.7;;;;;;
85470;SPS30;75873;54.332;18.626;2024-02-23T14:25:32;2.6;;2.6;2.4;;;;;;
85470;SPS30;75873;54.332;18.626;2024-02-23T14:30:32;6.5;;6.5;6.2;;;;;;
85470;SPS30;75873;54.332;18.626;2024-02-23T14:35:32;2.6;;2.6;2.5;;;;;;
85470;SPS30;75873;54.332;18.626;2024-02-23T14:40:32;5.3;;5.3;5.0;;;;;;
85470;SPS30;75873;54.332;18.626;2024-02-23T14:45:32;15.8;;14.7;12.8;;;;;;
85470;SPS30;75873;54.332;18.626;2024-02-23T14:50:33;3.2;;3.2;3.1;;;;;;
85470;SPS30;75873;54.332;18.626;2024-02-23T14:55:32;3.7;;3.7;3.5;;;;;;
85470;SPS30;75873;54.332;18.626;2024-02-23T15:00:32;8.2;;8.2;7.7;;;;;;
85470;SPS30;75873;54.332;18.626;2024-02-23T15:05:32;10.1;;9.8;9.0;;;;;;
85470;SPS30;75873;54.332;18.626;2024-02-23T15:10:32;6.4;;6.4;6.0;;;;;;
85470;SPS30;75873;54.332;18.626;2024-02-23T15:15:32;5.2;;5.2;4.9;;;;;;
85470;SPS30;75873;54.332;18.626;2024-02-23T15:20:32;5.3;;5.3;4.9;;;;;;
85470;SPS30;75873;54.332;18.626;2024-02-23T15:25:32;10.3;;10.0;9.2;;;;;;
85470;SPS30;75873;54.332;18.626;2024-02-23T15:30:32;11.8;;11.5;10.5;;;;;;
85470;SPS30;75873;54.332;18.626;2024-02-23T15:35:32;5.4;;5.4;5.1;;;;;;
85470;SPS30;75873;54.332;18.626;2024-02-23T15:40:32;3.7;;3.7;3.5;;;;;;
85470;SPS30;75873;54.332;18.626;2024-02-23T15:45:32;6.2;;6.1;5.6;;;;;;
85470;SPS30;75873;54.332;18.626;2024-02-23T15:50:32;19.8;;17.7;14.7;;;;;;
85470;SPS30;75873;54.332;18.626;2024-02-23T15:55:32;7.2;;6.7;6.0;;;;;;
85470;SPS30;75873;54.332;18.626;2024-02-23T16:00:32;3.9;;3.8;3.4;;;;;;
85470;SPS30;75873;54.332;18.626;2024-02-23T16:05:32;5.7;;5.4;4.8;;;;;;
85470;SPS30;75873;54.332;18.626;2024-02-23T16:10:32;9.0;;8.6;7.7;;;;;;
85470;SPS30;75873;54.332;18.626;2024-02-23T16:15:32;16.4;;14.5;12.0;;;;;;
85470;SPS30;75873;54.332;18.626;2024-02-23T16:20:32;18.2;;15.8;12.6;;;;;;
85470;SPS30;75873;54.332;18.626;2024-02-23T16:25:32;14.1;;12.8;10.8;;;;;;
85470;SPS30;75873;54.332;18.626;2024-02-23T16:30:32;11.7;;10.8;9.3;;;;;;
85470;SPS30;75873;54.332;18.626;2024-02-23T16:35:32;8.9;;8.3;7.3;;;;;;
85470;SPS30;75873;54.332;18.626;2024-02-23T16:40:32;6.5;;6.3;5.8;;;;;;
85470;SPS30;75873;54.332;18.626;2024-02-23T16:45:32;6.7;;6.7;6.3;;;;;;
85470;SPS30;75873;54.332;18.626;2024-02-23T16:50:32;9.5;;9.5;9.0;;;;;;
85470;SPS30;75873;54.332;18.626;2024-02-23T16:55:32;11.9;;11.9;11.2;;;;;;
85470;SPS30;75873;54.332;18.626;2024-02-23T17:00:32;14.6;;14.6;13.8;;;;;;
85470;SPS30;75873;54.332;18.626;2024-02-23T17:05:33;13.3;;13.3;12.6;;;;;;
85470;SPS30;75873;54.332;18.626;2024-02-23T17:10:32;11.5;;11.5;10.8;;;;;;
85470;SPS30;75873;54.332;18.626;2024-02-23T17:15:32;11.2;;11.0;10.3;;;;;;
85470;SPS30;75873;54.332;18.626;2024-02-23T17:20:32;12.1;;12.0;11.3;;;;;;
85470;SPS30;75873;54.332;18.626;2024-02-23T17:25:32;22.4;;22.3;20.9;;;;;;
85470;SPS30;75873;54.332;18.626;2024-02-23T17:30:32;16.8;;16.6;15.6;;;;;;
85470;SPS30;75873;54.332;18.626;2024-02-23T17:35:32;15.2;;14.9;13.8;;;;;;
85470;SPS30;75873;54.332;18.626;2024-02-23T17:40:32;16.0;;15.4;14.1;;;;;;
85470;SPS30;75873;54.332;18.626;2024-02-23T17:45:32;17.7;;17.0;15.4;;;;;;
85470;SPS30;75873;54.332;18.626;2024-02-23T17:50:32;16.6;;16.1;14.8;;;;;;
85470;SPS30;75873;54.332;18.626;2024-02-23T17:55:32;19.7;;19.4;18.1;;;;;;
85470;SPS30;75873;54.332;18.626;2024-02-23T18:00:32;19.4;;19.1;17.7;;;;;;
85470;SPS30;75873;54.332;18.626;2024-02-23T18:05:32;16.2;;15.9;14.8;;;;;;
85470;SPS30;75873;54.332;18.626;2024-02-23T18:10:32;16.7;;16.7;15.8;;;;;;
85470;SPS30;75873;54.332;18.626;2024-02-23T18:15:32;16.3;;16.2;15.3;;;;;;
85470;SPS30;75873;54.332;18.626;2024-02-23T18:20:32;15.5;;15.5;14.6;;;;;;
85470;SPS30;75873;54.332;18.626;2024-02-23T18:25:32;23.4;;23.3;21.9;;;;;;
85470;SPS30;75873;54.332;18.626;2024-02-23T18:30:32;28.2;;27.9;26.2;;;;;;
85470;SPS30;75873;54.332;18.626;2024-02-23T18:35:32;28.3;;28.2;26.6;;;;;;
85470;SPS30;75873;54.332;18.626;2024-02-23T18:40:32;30.4;;30.2;28.3;;;;;;
85470;SPS30;75873;54.332;18.626;2024-02-23T18:45:32;32.7;;32.3;30.1;;;;;;
85470;SPS30;75873;54.332;18.626;2024-02-23T18:50:32;36.4;;36.1;33.9;;;;;;
85470;SPS30;75873;54.332;18.626;2024-02-23T18:55:32;32.1;;31.7;29.5;;;;;;
85470;SPS30;75873;54.332;18.626;2024-02-23T19:00:32;25.3;;25.3;23.8;;;;;;
85470;SPS30;75873;54.332;18.626;2024-02-23T19:05:32;28.2;;28.0;26.3;;;;;;
85470;SPS30;75873;54.332;18.626;2024-02-23T19:10:32;29.6;;29.5;27.7;;;;;;
85470;SPS30;75873;54.332;18.626;2024-02-23T19:15:33;31.9;;31.5;29.5;;;;;;
85470;SPS30;75873;54.332;18.626;2024-02-23T19:20:32;30.7;;30.3;28.3;;;;;;
85470;SPS30;75873;54.332;18.626;2024-02-23T19:25:32;30.6;;30.3;28.4;;;;;;
85470;SPS30;75873;54.332;18.626;2024-02-23T19:30:32;32.0;;31.6;29.5;;;;;;
85470;SPS30;75873;54.332;18.626;2024-02-23T19:35:32;32.5;;31.9;29.6;;;;;;
85470;SPS30;75873;54.332;18.626;2024-02-23T19:40:32;34.6;;33.8;31.2;;;;;;
85470;SPS30;75873;54.332;18.626;2024-02-23T19:45:32;37.4;;36.6;33.9;;;;;;
85470;SPS30;75873;54.332;18.626;2024-02-23T19:50:32;42.7;;42.2;39.4;;;;;;
85470;SPS30;75873;54.332;18.626;2024-02-23T19:55:32;44.1;;43.5;40.5;;;;;;
85470;SPS30;75873;54.332;18.626;2024-02-23T20:00:32;44.0;;43.3;40.2;;;;;;
85470;SPS30;75873;54.332;18.626;2024-02-23T20:05:32;40.9;;40.3;37.5;;;;;;
85470;SPS30;75873;54.332;18.626;2024-02-23T20:10:32;38.5;;38.1;35.7;;;;;;
85470;SPS30;75873;54.332;18.626;2024-02-23T20:15:32;38.7;;37.8;34.9;;;;;;
85470;SPS30;75873;54.332;18.626;2024-02-23T20:20:35;39.5;;38.6;35.6;;;;;;
85470;SPS30;75873;54.332;18.626;2024-02-23T20:25:33;43.2;;42.4;39.2;;;;;;
85470;SPS30;75873;54.332;18.626;2024-02-23T20:30:32;43.9;;42.9;39.6;;;;;;
85470;SPS30;75873;54.332;18.626;2024-02-23T20:35:32;47.0;;46.0;42.6;;;;;;
85470;SPS30;75873;54.332;18.626;2024-02-23T20:40:32;41.7;;41.2;38.6;;;;;;
85470;SPS30;75873;54.332;18.626;2024-02-23T20:45:32;38.6;;38.2;35.8;;;;;;
85470;SPS30;75873;54.332;18.626;2024-02-23T20:50:32;39.9;;39.3;36.6;;;;;;
85470;SPS30;75873;54.332;18.626;2024-02-23T20:55:32;38.8;;38.6;36.2;;;;;;
85470;SPS30;75873;54.332;18.626;2024-02-23T21:00:32;39.2;;39.0;36.7;;;;;;
85470;SPS30;75873;54.332;18.626;2024-02-23T21:05:32;42.5;;42.0;39.1;;;;;;
85470;SPS30;75873;54.332;18.626;2024-02-23T21:10:32;40.9;;40.7;38.3;;;;;;
85470;SPS30;75873;54.332;18.626;2024-02-23T21:15:32;41.7;;41.2;38.4;;;;;;
85470;SPS30;75873;54.332;18.626;2024-02-23T21:20:32;42.6;;42.0;39.2;;;;;;
85470;SPS30;75873;54.332;18.626;2024-02-23T21:25:32;45.1;;44.5;41.5;;;;;;
85470;SPS30;75873;54.332;18.626;2024-02-23T21:30:32;68.5;;66.5;61.0;;;;;;
85470;SPS30;75873;54.332;18.626;2024-02-23T21:35:32;73.7;;71.9;66.2;;;;;;
85470;SPS30;75873;54.332;18.626;2024-02-23T21:40:32;77.8;;75.4;69.0;;;;;;
85470;SPS30;75873;54.332;18.626;2024-02-23T21:45:32;78.9;;76.0;69.1;;;;;;
85470;SPS30;75873;54.332;18.626;2024-02-23T21:50:32;78.8;;76.9;70.9;;;;;;
85470;SPS30;75873;54.332;18.626;2024-02-23T21:55:32;64.2;;62.9;58.2;;;;;;
85470;SPS30;75873;54.332;18.626;2024-02-23T22:00:32;56.5;;55.4;51.3;;;;;;
85470;SPS30;75873;54.332;18.626;2024-02-23T22:05:32;51.0;;50.4;47.1;;;;;;
85470;SPS30;75873;54.332;18.626;2024-02-23T22:10:32;50.3;;49.5;46.0;;;;;;
85470;SPS30;75873;54.332;18.626;2024-02-23T22:15:32;49.5;;48.8;45.4;;;;;;
85470;SPS30;75873;54.332;18.626;2024-02-23T22:20:32;47.2;;46.8;43.8;;;;;;
85470;SPS30;75873;54.332;18.626;2024-02-23T22:25:33;43.8;;43.2;40.2;;;;;;
85470;SPS30;75873;54.332;18.626;2024-02-23T22:30:32;40.3;;39.7;37.0;;;;;;
85470;SPS30;75873;54.332;18.626;2024-02-23T22:35:32;40.9;;40.5;37.9;;;;;;
85470;SPS30;75873;54.332;18.626;2024-02-23T22:40:32;38.8;;38.4;36.0;;;;;;
85470;SPS30;75873;54.332;18.626;2024-02-23T22:45:32;35.8;;35.5;33.2;;;;;;
85470;SPS30;75873;54.332;18.626;2024-02-23T22:50:32;37.7;;37.2;34.7;;;;;;
85470;SPS30;75873;54.332;18.626;2024-02-23T22:55:32;39.6;;39.4;37.0;;;;;;
85470;SPS30;75873;54.332;18.626;2024-02-23T23:00:32;43.9;;43.2;40.3;;;;;;
85470;SPS30;75873;54.332;18.626;2024-02-23T23:05:32;42.7;;42.1;39.3;;;;;;
85470;SPS30;75873;54.332;18.626;2024-02-23T23:10:32;39.5;;39.3;36.9;;;;;;
85470;SPS30;75873;54.332;18.626;2024-02-23T23:15:32;37.5;;37.5;35.4;;;;;;
85470;SPS30;75873;54.332;18.626;2024-02-23T23:20:32;35.6;;35.2;32.9;;;;;;
85470;SPS30;75873;54.332;18.626;2024-02-23T23:25:32;33.1;;33.0;31.1;;;;;;
85470;SPS30;75873;54.332;18.626;2024-02-23T23:30:32;38.5;;38.3;35.9;;;;;;
85470;SPS30;75873;54.332;18.626;2024-02-23T23:35:32;41.2;;40.9;38.4;;;;;;
85470;SPS30;75873;54.332;18.626;2024-02-23T23:40:32;46.3;;45.8;42.8;;;;;;
85470;SPS30;75873;54.332;18.626;2024-02-23T23:45:32;45.5;;44.9;41.9;;;;;;
85470;SPS30;75873;54.332;18.626;2024-02-23T23:50:32;39.9;;39.6;37.1;;;;;;
85470;SPS30;75873;54.332;18.626;2024-02-23T23:55:32;44.6;;43.6;40.1;;;;;;
